sensor_id;sensor_type;location;lat;lon;timestamp;temperature;humidity
53802;DHT22;39709;53.334;6.534;2024-03-22T00:01:56;9.40;99.90
53802;DHT22;39709;53.334;6.534;2024-03-22T00:04:21;9.30;99.90
53802;DHT22;39709;53.334;6.534;2024-03-22T00:06:48;9.50;99.90
53802;DHT22;39709;53.334;6.534;2024-03-22T00:09:14;9.60;99.90
53802;DHT22;39709;53.334;6.534;2024-03-22T00:11:39;9.50;99.90
53802;DHT22;39709;53.334;6.534;2024-03-22T00:14:06;9.60;99.90
53802;DHT22;39709;53.334;6.534;2024-03-22T00:16:31;9.40;99.90
53802;DHT22;39709;53.334;6.534;2024-03-22T00:18:57;9.50;99.90
53802;DHT22;39709;53.334;6.534;2024-03-22T00:21:23;9.40;99.90
53802;DHT22;39709;53.334;6.534;2024-03-22T00:23:48;9.50;99.90
53802;DHT22;39709;53.334;6.534;2024-03-22T00:26:14;9.60;99.90
53802;DHT22;39709;53.334;6.534;2024-03-22T00:28:39;9.60;99.90
53802;DHT22;39709;53.334;6.534;2024-03-22T00:31:05;9.50;99.90
53802;DHT22;39709;53.334;6.534;2024-03-22T00:33:30;9.60;99.90
53802;DHT22;39709;53.334;6.534;2024-03-22T00:35:57;9.50;99.90
53802;DHT22;39709;53.334;6.534;2024-03-22T00:38:22;9.60;99.90
53802;DHT22;39709;53.334;6.534;2024-03-22T00:40:48;9.60;99.90
53802;DHT22;39709;53.334;6.534;2024-03-22T00:43:14;9.60;99.90
53802;DHT22;39709;53.334;6.534;2024-03-22T00:45:39;9.60;99.90
53802;DHT22;39709;53.334;6.534;2024-03-22T00:48:05;9.60;99.90
53802;DHT22;39709;53.334;6.534;2024-03-22T00:50:30;9.60;99.90
53802;DHT22;39709;53.334;6.534;2024-03-22T00:52:56;9.70;99.90
53802;DHT22;39709;53.334;6.534;2024-03-22T00:55:22;9.80;99.90
53802;DHT22;39709;53.334;6.534;2024-03-22T00:57:48;9.60;99.90
53802;DHT22;39709;53.334;6.534;2024-03-22T01:00:13;9.70;99.90
53802;DHT22;39709;53.334;6.534;2024-03-22T01:02:40;9.70;99.90
53802;DHT22;39709;53.334;6.534;2024-03-22T01:05:05;9.60;99.90
53802;DHT22;39709;53.334;6.534;2024-03-22T01:07:31;9.70;99.90
53802;DHT22;39709;53.334;6.534;2024-03-22T01:09:56;9.80;99.90
53802;DHT22;39709;53.334;6.534;2024-03-22T01:12:22;9.70;99.90
53802;DHT22;39709;53.334;6.534;2024-03-22T01:14:48;9.80;99.90
53802;DHT22;39709;53.334;6.534;2024-03-22T01:17:13;9.80;99.90
53802;DHT22;39709;53.334;6.534;2024-03-22T01:19:39;9.70;99.90
53802;DHT22;39709;53.334;6.534;2024-03-22T01:22:04;9.80;99.90
53802;DHT22;39709;53.334;6.534;2024-03-22T01:24:30;9.70;99.90
53802;DHT22;39709;53.334;6.534;2024-03-22T01:26:55;9.80;99.90
53802;DHT22;39709;53.334;6.534;2024-03-22T01:29:21;9.80;99.90
53802;DHT22;39709;53.334;6.534;2024-03-22T01:31:47;9.90;99.90
53802;DHT22;39709;53.334;6.534;2024-03-22T01:34:13;9.90;99.90
53802;DHT22;39709;53.334;6.534;2024-03-22T01:36:39;9.80;99.90
53802;DHT22;39709;53.334;6.534;2024-03-22T01:39:04;9.90;99.90
53802;DHT22;39709;53.334;6.534;2024-03-22T01:41:30;9.90;99.90
53802;DHT22;39709;53.334;6.534;2024-03-22T01:43:56;9.90;99.90
53802;DHT22;39709;53.334;6.534;2024-03-22T01:46:21;10.00;99.90
53802;DHT22;39709;53.334;6.534;2024-03-22T01:48:47;9.90;99.90
53802;DHT22;39709;53.334;6.534;2024-03-22T01:51:12;10.00;99.90
53802;DHT22;39709;53.334;6.534;2024-03-22T01:53:38;10.10;99.90
53802;DHT22;39709;53.334;6.534;2024-03-22T01:56:04;10.10;99.90
53802;DHT22;39709;53.334;6.534;2024-03-22T01:58:30;10.10;99.90
53802;DHT22;39709;53.334;6.534;2024-03-22T02:00:56;10.10;99.90
53802;DHT22;39709;53.334;6.534;2024-03-22T02:03:22;10.10;99.90
53802;DHT22;39709;53.334;6.534;2024-03-22T02:05:47;10.10;99.90
53802;DHT22;39709;53.334;6.534;2024-03-22T02:08:13;10.10;99.90
53802;DHT22;39709;53.334;6.534;2024-03-22T02:10:38;10.10;99.90
53802;DHT22;39709;53.334;6.534;2024-03-22T02:13:04;10.10;99.90
53802;DHT22;39709;53.334;6.534;2024-03-22T02:15:29;10.10;99.90
53802;DHT22;39709;53.334;6.534;2024-03-22T02:17:55;10.10;99.90
53802;DHT22;39709;53.334;6.534;2024-03-22T02:20:21;10.00;99.90
53802;DHT22;39709;53.334;6.534;2024-03-22T02:22:46;10.00;99.90
53802;DHT22;39709;53.334;6.534;2024-03-22T02:25:12;10.10;99.90
53802;DHT22;39709;53.334;6.534;2024-03-22T02:27:38;10.10;99.90
53802;DHT22;39709;53.334;6.534;2024-03-22T02:30:04;10.00;99.90
53802;DHT22;39709;53.334;6.534;2024-03-22T02:32:29;10.10;99.90
53802;DHT22;39709;53.334;6.534;2024-03-22T02:34:55;10.20;99.90
53802;DHT22;39709;53.334;6.534;2024-03-22T02:37:21;10.20;99.90
53802;DHT22;39709;53.334;6.534;2024-03-22T02:39:46;10.20;99.90
53802;DHT22;39709;53.334;6.534;2024-03-22T02:42:12;10.10;99.90
53802;DHT22;39709;53.334;6.534;2024-03-22T02:44:37;10.20;99.90
53802;DHT22;39709;53.334;6.534;2024-03-22T02:47:11;10.20;99.90
53802;DHT22;39709;53.334;6.534;2024-03-22T02:49:38;10.20;99.90
53802;DHT22;39709;53.334;6.534;2024-03-22T02:52:04;10.20;99.90
53802;DHT22;39709;53.334;6.534;2024-03-22T02:54:29;10.20;99.90
53802;DHT22;39709;53.334;6.534;2024-03-22T02:56:55;10.30;99.90
53802;DHT22;39709;53.334;6.534;2024-03-22T02:59:20;10.20;99.90
53802;DHT22;39709;53.334;6.534;2024-03-22T03:01:46;10.20;99.90
53802;DHT22;39709;53.334;6.534;2024-03-22T03:04:12;10.20;99.90
53802;DHT22;39709;53.334;6.534;2024-03-22T03:06:37;10.40;99.90
53802;DHT22;39709;53.334;6.534;2024-03-22T03:09:03;10.30;99.90
53802;DHT22;39709;53.334;6.534;2024-03-22T03:11:32;10.20;99.90
53802;DHT22;39709;53.334;6.534;2024-03-22T03:13:58;10.20;99.90
53802;DHT22;39709;53.334;6.534;2024-03-22T03:16:23;10.20;99.90
53802;DHT22;39709;53.334;6.534;2024-03-22T03:18:49;10.30;99.90
53802;DHT22;39709;53.334;6.534;2024-03-22T03:21:14;10.30;99.90
53802;DHT22;39709;53.334;6.534;2024-03-22T03:23:40;10.40;99.90
53802;DHT22;39709;53.334;6.534;2024-03-22T03:26:06;10.40;99.90
53802;DHT22;39709;53.334;6.534;2024-03-22T03:28:31;10.30;99.90
53802;DHT22;39709;53.334;6.534;2024-03-22T03:30:57;10.30;99.90
53802;DHT22;39709;53.334;6.534;2024-03-22T03:33:22;10.40;99.90
53802;DHT22;39709;53.334;6.534;2024-03-22T03:35:48;10.30;99.90
53802;DHT22;39709;53.334;6.534;2024-03-22T03:38:13;10.40;99.90
53802;DHT22;39709;53.334;6.534;2024-03-22T03:40:39;10.30;99.90
53802;DHT22;39709;53.334;6.534;2024-03-22T03:43:04;10.40;99.90
53802;DHT22;39709;53.334;6.534;2024-03-22T03:45:30;10.30;99.90
53802;DHT22;39709;53.334;6.534;2024-03-22T03:47:56;10.30;99.90
53802;DHT22;39709;53.334;6.534;2024-03-22T03:50:21;10.20;99.90
53802;DHT22;39709;53.334;6.534;2024-03-22T03:52:47;10.30;99.90
53802;DHT22;39709;53.334;6.534;2024-03-22T03:55:13;10.40;99.90
53802;DHT22;39709;53.334;6.534;2024-03-22T03:57:38;10.40;99.90
53802;DHT22;39709;53.334;6.534;2024-03-22T04:00:04;10.40;99.90
53802;DHT22;39709;53.334;6.534;2024-03-22T04:02:30;10.40;99.90
53802;DHT22;39709;53.334;6.534;2024-03-22T04:04:55;10.30;99.90
53802;DHT22;39709;53.334;6.534;2024-03-22T04:07:21;10.40;99.90
53802;DHT22;39709;53.334;6.534;2024-03-22T04:09:47;10.30;99.90
53802;DHT22;39709;53.334;6.534;2024-03-22T04:12:12;10.30;99.90
53802;DHT22;39709;53.334;6.534;2024-03-22T04:14:38;10.30;99.90
53802;DHT22;39709;53.334;6.534;2024-03-22T04:17:04;10.30;99.90
53802;DHT22;39709;53.334;6.534;2024-03-22T04:19:29;10.30;99.90
53802;DHT22;39709;53.334;6.534;2024-03-22T04:21:55;10.20;99.90
53802;DHT22;39709;53.334;6.534;2024-03-22T04:24:20;10.20;99.90
53802;DHT22;39709;53.334;6.534;2024-03-22T04:26:46;10.30;99.90
53802;DHT22;39709;53.334;6.534;2024-03-22T04:29:12;10.30;99.90
53802;DHT22;39709;53.334;6.534;2024-03-22T04:31:37;10.10;99.90
53802;DHT22;39709;53.334;6.534;2024-03-22T04:34:03;10.20;99.90
53802;DHT22;39709;53.334;6.534;2024-03-22T04:36:30;10.10;99.90
53802;DHT22;39709;53.334;6.534;2024-03-22T04:38:56;10.10;99.90
53802;DHT22;39709;53.334;6.534;2024-03-22T04:41:21;10.10;99.90
53802;DHT22;39709;53.334;6.534;2024-03-22T04:43:47;10.20;99.90
53802;DHT22;39709;53.334;6.534;2024-03-22T04:46:12;10.30;99.90
53802;DHT22;39709;53.334;6.534;2024-03-22T04:48:38;10.30;99.90
53802;DHT22;39709;53.334;6.534;2024-03-22T04:51:04;10.20;99.90
53802;DHT22;39709;53.334;6.534;2024-03-22T04:53:29;10.20;99.90
53802;DHT22;39709;53.334;6.534;2024-03-22T04:55:55;10.20;99.90
53802;DHT22;39709;53.334;6.534;2024-03-22T04:58:21;10.20;99.90
53802;DHT22;39709;53.334;6.534;2024-03-22T05:00:47;10.20;99.90
53802;DHT22;39709;53.334;6.534;2024-03-22T05:03:12;10.20;99.90
53802;DHT22;39709;53.334;6.534;2024-03-22T05:05:38;10.20;99.90
53802;DHT22;39709;53.334;6.534;2024-03-22T05:08:04;10.20;99.90
53802;DHT22;39709;53.334;6.534;2024-03-22T05:10:30;10.20;99.90
53802;DHT22;39709;53.334;6.534;2024-03-22T05:12:56;10.30;99.90
53802;DHT22;39709;53.334;6.534;2024-03-22T05:15:22;10.30;99.90
53802;DHT22;39709;53.334;6.534;2024-03-22T05:17:48;10.30;99.90
53802;DHT22;39709;53.334;6.534;2024-03-22T05:20:13;10.30;99.90
53802;DHT22;39709;53.334;6.534;2024-03-22T05:22:39;10.30;99.90
53802;DHT22;39709;53.334;6.534;2024-03-22T05:25:05;10.20;99.90
53802;DHT22;39709;53.334;6.534;2024-03-22T05:27:31;10.20;99.90
53802;DHT22;39709;53.334;6.534;2024-03-22T05:29:56;10.10;99.90
53802;DHT22;39709;53.334;6.534;2024-03-22T05:32:22;10.20;99.90
53802;DHT22;39709;53.334;6.534;2024-03-22T05:34:47;10.10;99.90
53802;DHT22;39709;53.334;6.534;2024-03-22T05:37:13;10.20;99.90
53802;DHT22;39709;53.334;6.534;2024-03-22T05:39:38;10.30;99.90
53802;DHT22;39709;53.334;6.534;2024-03-22T05:42:05;10.10;99.90
53802;DHT22;39709;53.334;6.534;2024-03-22T05:44:31;10.10;99.90
53802;DHT22;39709;53.334;6.534;2024-03-22T05:46:57;10.00;99.90
53802;DHT22;39709;53.334;6.534;2024-03-22T05:49:23;10.10;99.90
53802;DHT22;39709;53.334;6.534;2024-03-22T05:51:48;10.00;99.90
53802;DHT22;39709;53.334;6.534;2024-03-22T05:54:14;10.00;99.90
53802;DHT22;39709;53.334;6.534;2024-03-22T05:56:39;10.00;99.90
53802;DHT22;39709;53.334;6.534;2024-03-22T05:59:05;10.00;99.90
53802;DHT22;39709;53.334;6.534;2024-03-22T06:01:31;10.00;99.90
53802;DHT22;39709;53.334;6.534;2024-03-22T06:03:57;9.90;99.90
53802;DHT22;39709;53.334;6.534;2024-03-22T06:06:22;9.80;99.90
53802;DHT22;39709;53.334;6.534;2024-03-22T06:08:50;9.90;99.90
53802;DHT22;39709;53.334;6.534;2024-03-22T06:11:18;9.90;99.90
53802;DHT22;39709;53.334;6.534;2024-03-22T06:13:43;9.90;99.90
53802;DHT22;39709;53.334;6.534;2024-03-22T06:16:09;9.90;99.90
53802;DHT22;39709;53.334;6.534;2024-03-22T06:18:34;9.90;99.90
53802;DHT22;39709;53.334;6.534;2024-03-22T06:21:00;9.90;99.90
53802;DHT22;39709;53.334;6.534;2024-03-22T06:23:26;9.90;99.90
53802;DHT22;39709;53.334;6.534;2024-03-22T06:25:52;10.00;99.90
53802;DHT22;39709;53.334;6.534;2024-03-22T06:28:17;9.90;99.90
53802;DHT22;39709;53.334;6.534;2024-03-22T06:30:43;10.00;99.90
53802;DHT22;39709;53.334;6.534;2024-03-22T06:33:09;9.90;99.90
53802;DHT22;39709;53.334;6.534;2024-03-22T06:35:34;9.80;99.90
53802;DHT22;39709;53.334;6.534;2024-03-22T06:38:00;9.70;99.90
53802;DHT22;39709;53.334;6.534;2024-03-22T06:40:28;9.80;99.90
53802;DHT22;39709;53.334;6.534;2024-03-22T06:42:53;9.70;99.90
53802;DHT22;39709;53.334;6.534;2024-03-22T06:45:19;9.80;99.90
53802;DHT22;39709;53.334;6.534;2024-03-22T06:47:45;9.80;99.90
53802;DHT22;39709;53.334;6.534;2024-03-22T06:50:11;9.70;99.90
53802;DHT22;39709;53.334;6.534;2024-03-22T06:52:36;9.70;99.90
53802;DHT22;39709;53.334;6.534;2024-03-22T06:55:02;9.70;99.90
53802;DHT22;39709;53.334;6.534;2024-03-22T06:57:29;9.60;99.90
53802;DHT22;39709;53.334;6.534;2024-03-22T06:59:54;9.70;99.90
53802;DHT22;39709;53.334;6.534;2024-03-22T07:02:20;9.80;99.90
53802;DHT22;39709;53.334;6.534;2024-03-22T07:04:46;9.60;99.90
53802;DHT22;39709;53.334;6.534;2024-03-22T07:07:11;9.70;99.90
53802;DHT22;39709;53.334;6.534;2024-03-22T07:09:37;9.80;99.90
53802;DHT22;39709;53.334;6.534;2024-03-22T07:12:02;9.70;99.90
53802;DHT22;39709;53.334;6.534;2024-03-22T07:14:28;9.60;99.90
53802;DHT22;39709;53.334;6.534;2024-03-22T07:16:54;9.60;99.90
53802;DHT22;39709;53.334;6.534;2024-03-22T07:19:20;9.70;99.90
53802;DHT22;39709;53.334;6.534;2024-03-22T07:21:46;9.60;99.90
53802;DHT22;39709;53.334;6.534;2024-03-22T07:24:12;9.60;99.90
53802;DHT22;39709;53.334;6.534;2024-03-22T07:26:38;9.50;99.90
53802;DHT22;39709;53.334;6.534;2024-03-22T07:29:03;9.60;99.90
53802;DHT22;39709;53.334;6.534;2024-03-22T07:31:29;9.70;99.90
53802;DHT22;39709;53.334;6.534;2024-03-22T07:33:54;9.60;99.90
53802;DHT22;39709;53.334;6.534;2024-03-22T07:36:21;9.60;99.90
53802;DHT22;39709;53.334;6.534;2024-03-22T07:38:46;9.60;99.90
53802;DHT22;39709;53.334;6.534;2024-03-22T07:41:14;9.60;99.90
53802;DHT22;39709;53.334;6.534;2024-03-22T07:43:40;9.60;99.90
53802;DHT22;39709;53.334;6.534;2024-03-22T07:46:05;9.50;99.90
53802;DHT22;39709;53.334;6.534;2024-03-22T07:48:31;9.60;99.90
53802;DHT22;39709;53.334;6.534;2024-03-22T07:50:59;9.60;99.90
53802;DHT22;39709;53.334;6.534;2024-03-22T07:53:25;9.60;99.90
53802;DHT22;39709;53.334;6.534;2024-03-22T07:55:51;9.60;99.90
53802;DHT22;39709;53.334;6.534;2024-03-22T07:58:16;9.60;99.90
53802;DHT22;39709;53.334;6.534;2024-03-22T08:00:42;9.60;99.90
53802;DHT22;39709;53.334;6.534;2024-03-22T08:03:07;9.70;99.90
53802;DHT22;39709;53.334;6.534;2024-03-22T08:05:33;9.70;99.90
53802;DHT22;39709;53.334;6.534;2024-03-22T08:07:59;9.60;99.90
53802;DHT22;39709;53.334;6.534;2024-03-22T08:10:24;9.60;99.90
53802;DHT22;39709;53.334;6.534;2024-03-22T08:12:50;9.60;99.90
53802;DHT22;39709;53.334;6.534;2024-03-22T08:15:15;9.60;99.90
53802;DHT22;39709;53.334;6.534;2024-03-22T08:17:41;9.60;99.90
53802;DHT22;39709;53.334;6.534;2024-03-22T08:20:06;9.60;99.90
53802;DHT22;39709;53.334;6.534;2024-03-22T08:22:32;9.70;99.90
53802;DHT22;39709;53.334;6.534;2024-03-22T08:24:58;9.60;99.90
53802;DHT22;39709;53.334;6.534;2024-03-22T08:27:23;9.60;99.90
53802;DHT22;39709;53.334;6.534;2024-03-22T08:29:49;9.60;99.90
53802;DHT22;39709;53.334;6.534;2024-03-22T08:32:15;9.60;99.90
53802;DHT22;39709;53.334;6.534;2024-03-22T08:34:41;9.60;99.90
53802;DHT22;39709;53.334;6.534;2024-03-22T08:37:06;9.60;99.90
53802;DHT22;39709;53.334;6.534;2024-03-22T08:39:32;9.60;99.90
53802;DHT22;39709;53.334;6.534;2024-03-22T08:41:58;9.60;99.90
53802;DHT22;39709;53.334;6.534;2024-03-22T08:44:24;9.70;99.90
53802;DHT22;39709;53.334;6.534;2024-03-22T08:46:49;9.70;99.90
53802;DHT22;39709;53.334;6.534;2024-03-22T08:49:15;9.70;99.90
53802;DHT22;39709;53.334;6.534;2024-03-22T08:51:41;9.70;99.90
53802;DHT22;39709;53.334;6.534;2024-03-22T08:54:06;9.70;99.90
53802;DHT22;39709;53.334;6.534;2024-03-22T08:56:32;9.70;99.90
53802;DHT22;39709;53.334;6.534;2024-03-22T08:58:58;9.60;99.90
53802;DHT22;39709;53.334;6.534;2024-03-22T09:01:24;9.60;99.90
53802;DHT22;39709;53.334;6.534;2024-03-22T09:03:50;9.70;99.90
53802;DHT22;39709;53.334;6.534;2024-03-22T09:06:16;9.50;99.90
53802;DHT22;39709;53.334;6.534;2024-03-22T09:08:42;9.60;99.90
53802;DHT22;39709;53.334;6.534;2024-03-22T09:11:07;9.60;99.90
53802;DHT22;39709;53.334;6.534;2024-03-22T09:13:33;9.70;99.90
53802;DHT22;39709;53.334;6.534;2024-03-22T09:16:00;9.60;99.90
53802;DHT22;39709;53.334;6.534;2024-03-22T09:18:26;9.60;99.90
53802;DHT22;39709;53.334;6.534;2024-03-22T09:20:52;9.60;99.90
53802;DHT22;39709;53.334;6.534;2024-03-22T09:23:18;9.60;99.90
53802;DHT22;39709;53.334;6.534;2024-03-22T09:25:44;9.80;99.90
53802;DHT22;39709;53.334;6.534;2024-03-22T09:28:10;9.90;99.90
53802;DHT22;39709;53.334;6.534;2024-03-22T09:30:39;9.80;99.90
53802;DHT22;39709;53.334;6.534;2024-03-22T09:33:05;9.70;99.90
53802;DHT22;39709;53.334;6.534;2024-03-22T09:35:32;9.80;99.90
53802;DHT22;39709;53.334;6.534;2024-03-22T09:37:58;9.80;99.90
53802;DHT22;39709;53.334;6.534;2024-03-22T09:40:24;9.70;99.90
53802;DHT22;39709;53.334;6.534;2024-03-22T09:42:50;9.70;99.90
53802;DHT22;39709;53.334;6.534;2024-03-22T09:45:18;9.70;99.90
53802;DHT22;39709;53.334;6.534;2024-03-22T09:47:45;9.70;99.90
53802;DHT22;39709;53.334;6.534;2024-03-22T09:50:13;11.00;99.90
53802;DHT22;39709;53.334;6.534;2024-03-22T09:52:39;9.70;99.90
53802;DHT22;39709;53.334;6.534;2024-03-22T09:55:06;9.80;99.90
53802;DHT22;39709;53.334;6.534;2024-03-22T09:57:31;9.70;99.90
53802;DHT22;39709;53.334;6.534;2024-03-22T09:59:59;9.80;99.90
53802;DHT22;39709;53.334;6.534;2024-03-22T10:02:25;9.70;99.90
53802;DHT22;39709;53.334;6.534;2024-03-22T10:04:51;9.80;99.90
53802;DHT22;39709;53.334;6.534;2024-03-22T10:07:17;9.80;99.90
53802;DHT22;39709;53.334;6.534;2024-03-22T10:09:43;9.70;99.90
53802;DHT22;39709;53.334;6.534;2024-03-22T10:12:09;9.80;99.90
53802;DHT22;39709;53.334;6.534;2024-03-22T10:14:35;9.80;99.90
53802;DHT22;39709;53.334;6.534;2024-03-22T10:17:02;9.80;99.90
53802;DHT22;39709;53.334;6.534;2024-03-22T10:19:28;9.80;99.90
53802;DHT22;39709;53.334;6.534;2024-03-22T10:22:00;9.90;99.90
53802;DHT22;39709;53.334;6.534;2024-03-22T10:24:26;9.80;99.90
53802;DHT22;39709;53.334;6.534;2024-03-22T10:26:51;9.80;99.90
53802;DHT22;39709;53.334;6.534;2024-03-22T10:29:17;9.80;99.90
53802;DHT22;39709;53.334;6.534;2024-03-22T10:31:43;9.70;99.90
53802;DHT22;39709;53.334;6.534;2024-03-22T10:34:09;9.90;99.90
53802;DHT22;39709;53.334;6.534;2024-03-22T10:36:36;9.80;99.90
53802;DHT22;39709;53.334;6.534;2024-03-22T10:39:02;9.70;99.90
53802;DHT22;39709;53.334;6.534;2024-03-22T10:41:29;9.60;99.90
53802;DHT22;39709;53.334;6.534;2024-03-22T10:43:54;9.70;99.90
53802;DHT22;39709;53.334;6.534;2024-03-22T10:46:20;9.70;99.90
53802;DHT22;39709;53.334;6.534;2024-03-22T10:48:46;9.70;99.90
53802;DHT22;39709;53.334;6.534;2024-03-22T10:51:11;9.80;99.90
53802;DHT22;39709;53.334;6.534;2024-03-22T10:53:38;9.60;99.90
53802;DHT22;39709;53.334;6.534;2024-03-22T10:56:04;9.70;99.90
53802;DHT22;39709;53.334;6.534;2024-03-22T10:58:29;9.60;99.90
53802;DHT22;39709;53.334;6.534;2024-03-22T11:00:56;9.50;99.90
53802;DHT22;39709;53.334;6.534;2024-03-22T11:03:25;9.60;99.90
53802;DHT22;39709;53.334;6.534;2024-03-22T11:05:54;9.60;99.90
53802;DHT22;39709;53.334;6.534;2024-03-22T11:08:25;9.60;99.90
53802;DHT22;39709;53.334;6.534;2024-03-22T11:10:50;9.70;99.90
53802;DHT22;39709;53.334;6.534;2024-03-22T11:13:16;9.70;99.90
53802;DHT22;39709;53.334;6.534;2024-03-22T11:15:42;9.60;99.90
53802;DHT22;39709;53.334;6.534;2024-03-22T11:18:08;9.60;99.90
53802;DHT22;39709;53.334;6.534;2024-03-22T11:20:37;9.70;99.90
53802;DHT22;39709;53.334;6.534;2024-03-22T11:23:06;9.60;99.90
53802;DHT22;39709;53.334;6.534;2024-03-22T11:25:32;9.70;99.90
53802;DHT22;39709;53.334;6.534;2024-03-22T11:27:58;9.70;99.90
53802;DHT22;39709;53.334;6.534;2024-03-22T11:30:24;9.70;99.90
53802;DHT22;39709;53.334;6.534;2024-03-22T11:32:50;9.60;99.90
53802;DHT22;39709;53.334;6.534;2024-03-22T11:35:16;9.70;99.90
53802;DHT22;39709;53.334;6.534;2024-03-22T11:37:42;9.80;99.90
53802;DHT22;39709;53.334;6.534;2024-03-22T11:40:08;9.60;99.90
53802;DHT22;39709;53.334;6.534;2024-03-22T11:42:42;9.70;99.90
53802;DHT22;39709;53.334;6.534;2024-03-22T11:45:11;9.70;99.90
53802;DHT22;39709;53.334;6.534;2024-03-22T11:47:37;9.70;99.90
53802;DHT22;39709;53.334;6.534;2024-03-22T11:50:02;9.70;99.90
53802;DHT22;39709;53.334;6.534;2024-03-22T11:52:29;9.60;99.90
53802;DHT22;39709;53.334;6.534;2024-03-22T11:54:54;9.60;99.90
53802;DHT22;39709;53.334;6.534;2024-03-22T11:57:20;9.60;99.90
53802;DHT22;39709;53.334;6.534;2024-03-22T11:59:46;9.80;99.90
53802;DHT22;39709;53.334;6.534;2024-03-22T12:02:11;9.70;99.90
53802;DHT22;39709;53.334;6.534;2024-03-22T12:04:45;9.70;99.90
53802;DHT22;39709;53.334;6.534;2024-03-22T12:07:12;9.70;99.90
53802;DHT22;39709;53.334;6.534;2024-03-22T12:09:38;9.80;99.90
53802;DHT22;39709;53.334;6.534;2024-03-22T12:12:06;9.80;99.90
53802;DHT22;39709;53.334;6.534;2024-03-22T12:14:33;9.80;99.90
53802;DHT22;39709;53.334;6.534;2024-03-22T12:16:58;9.80;99.90
53802;DHT22;39709;53.334;6.534;2024-03-22T12:19:24;9.90;99.90
53802;DHT22;39709;53.334;6.534;2024-03-22T12:21:49;9.90;99.90
53802;DHT22;39709;53.334;6.534;2024-03-22T12:24:15;10.00;99.90
53802;DHT22;39709;53.334;6.534;2024-03-22T12:26:41;10.00;99.90
53802;DHT22;39709;53.334;6.534;2024-03-22T12:29:06;10.00;99.90
53802;DHT22;39709;53.334;6.534;2024-03-22T12:31:32;10.00;99.90
53802;DHT22;39709;53.334;6.534;2024-03-22T12:33:58;10.10;99.90
53802;DHT22;39709;53.334;6.534;2024-03-22T12:36:24;10.20;99.90
53802;DHT22;39709;53.334;6.534;2024-03-22T12:38:50;10.30;99.90
53802;DHT22;39709;53.334;6.534;2024-03-22T12:41:16;10.30;99.90
53802;DHT22;39709;53.334;6.534;2024-03-22T12:43:41;10.30;99.90
53802;DHT22;39709;53.334;6.534;2024-03-22T12:46:08;10.20;99.90
53802;DHT22;39709;53.334;6.534;2024-03-22T12:48:34;10.20;99.90
53802;DHT22;39709;53.334;6.534;2024-03-22T12:50:59;10.30;99.90
53802;DHT22;39709;53.334;6.534;2024-03-22T12:53:25;10.20;99.90
53802;DHT22;39709;53.334;6.534;2024-03-22T12:55:51;10.40;99.90
53802;DHT22;39709;53.334;6.534;2024-03-22T12:58:16;10.30;99.90
53802;DHT22;39709;53.334;6.534;2024-03-22T13:00:42;10.30;99.90
53802;DHT22;39709;53.334;6.534;2024-03-22T13:03:07;10.30;99.90
53802;DHT22;39709;53.334;6.534;2024-03-22T13:05:33;10.40;99.90
53802;DHT22;39709;53.334;6.534;2024-03-22T13:07:58;10.40;99.90
53802;DHT22;39709;53.334;6.534;2024-03-22T13:10:24;10.50;99.90
53802;DHT22;39709;53.334;6.534;2024-03-22T13:12:50;10.60;99.90
53802;DHT22;39709;53.334;6.534;2024-03-22T13:15:15;10.60;99.90
53802;DHT22;39709;53.334;6.534;2024-03-22T13:17:41;10.60;99.90
53802;DHT22;39709;53.334;6.534;2024-03-22T13:20:07;10.60;99.90
53802;DHT22;39709;53.334;6.534;2024-03-22T13:22:38;10.60;99.90
53802;DHT22;39709;53.334;6.534;2024-03-22T13:25:07;10.60;99.90
53802;DHT22;39709;53.334;6.534;2024-03-22T13:27:34;10.50;99.90
53802;DHT22;39709;53.334;6.534;2024-03-22T13:30:03;10.50;99.90
53802;DHT22;39709;53.334;6.534;2024-03-22T13:32:28;10.40;99.90
53802;DHT22;39709;53.334;6.534;2024-03-22T13:34:54;10.40;99.90
53802;DHT22;39709;53.334;6.534;2024-03-22T13:37:20;10.40;99.90
53802;DHT22;39709;53.334;6.534;2024-03-22T13:39:49;10.40;99.90
53802;DHT22;39709;53.334;6.534;2024-03-22T13:42:15;10.30;99.90
53802;DHT22;39709;53.334;6.534;2024-03-22T13:44:41;10.30;99.90
53802;DHT22;39709;53.334;6.534;2024-03-22T13:47:06;10.40;99.90
53802;DHT22;39709;53.334;6.534;2024-03-22T13:49:32;10.30;99.90
53802;DHT22;39709;53.334;6.534;2024-03-22T13:51:58;10.30;99.90
53802;DHT22;39709;53.334;6.534;2024-03-22T13:54:24;10.20;99.90
53802;DHT22;39709;53.334;6.534;2024-03-22T13:56:50;10.20;99.90
53802;DHT22;39709;53.334;6.534;2024-03-22T13:59:15;10.30;99.90
53802;DHT22;39709;53.334;6.534;2024-03-22T14:01:41;10.30;99.90
53802;DHT22;39709;53.334;6.534;2024-03-22T14:04:09;10.20;99.90
53802;DHT22;39709;53.334;6.534;2024-03-22T14:06:36;10.20;99.90
53802;DHT22;39709;53.334;6.534;2024-03-22T14:09:02;10.00;99.90
53802;DHT22;39709;53.334;6.534;2024-03-22T14:11:29;9.70;99.90
53802;DHT22;39709;53.334;6.534;2024-03-22T14:13:58;9.90;99.90
53802;DHT22;39709;53.334;6.534;2024-03-22T14:16:24;10.00;99.90
53802;DHT22;39709;53.334;6.534;2024-03-22T14:18:50;10.00;99.90
53802;DHT22;39709;53.334;6.534;2024-03-22T14:21:16;9.70;99.90
53802;DHT22;39709;53.334;6.534;2024-03-22T14:23:48;9.90;99.90
53802;DHT22;39709;53.334;6.534;2024-03-22T14:26:15;9.80;99.90
53802;DHT22;39709;53.334;6.534;2024-03-22T14:28:41;9.80;99.90
53802;DHT22;39709;53.334;6.534;2024-03-22T14:31:07;8.70;99.90
53802;DHT22;39709;53.334;6.534;2024-03-22T14:33:36;9.90;99.90
53802;DHT22;39709;53.334;6.534;2024-03-22T14:36:02;9.90;99.90
53802;DHT22;39709;53.334;6.534;2024-03-22T14:38:28;9.90;99.90
53802;DHT22;39709;53.334;6.534;2024-03-22T14:40:54;9.80;99.90
53802;DHT22;39709;53.334;6.534;2024-03-22T14:43:20;9.80;99.90
53802;DHT22;39709;53.334;6.534;2024-03-22T14:45:46;9.60;99.90
53802;DHT22;39709;53.334;6.534;2024-03-22T14:48:11;9.60;99.90
53802;DHT22;39709;53.334;6.534;2024-03-22T14:50:37;9.60;99.90
53802;DHT22;39709;53.334;6.534;2024-03-22T14:53:04;9.40;99.90
53802;DHT22;39709;53.334;6.534;2024-03-22T14:55:29;9.60;99.90
53802;DHT22;39709;53.334;6.534;2024-03-22T14:57:55;9.40;99.90
53802;DHT22;39709;53.334;6.534;2024-03-22T15:00:20;9.70;99.90
53802;DHT22;39709;53.334;6.534;2024-03-22T15:02:46;9.70;99.90
53802;DHT22;39709;53.334;6.534;2024-03-22T15:05:13;9.60;99.90
53802;DHT22;39709;53.334;6.534;2024-03-22T15:07:38;9.50;99.90
53802;DHT22;39709;53.334;6.534;2024-03-22T15:10:04;9.20;99.90
53802;DHT22;39709;53.334;6.534;2024-03-22T15:12:30;9.20;99.90
53802;DHT22;39709;53.334;6.534;2024-03-22T15:14:55;9.10;99.90
53802;DHT22;39709;53.334;6.534;2024-03-22T15:17:21;9.10;99.90
53802;DHT22;39709;53.334;6.534;2024-03-22T15:19:48;9.10;99.90
53802;DHT22;39709;53.334;6.534;2024-03-22T15:22:14;9.20;99.90
53802;DHT22;39709;53.334;6.534;2024-03-22T15:24:46;9.20;99.90
53802;DHT22;39709;53.334;6.534;2024-03-22T15:27:12;9.20;99.90
53802;DHT22;39709;53.334;6.534;2024-03-22T15:29:38;9.20;99.90
53802;DHT22;39709;53.334;6.534;2024-03-22T15:32:04;9.20;99.90